sensor_id;sensor_type;location;lat;lon;timestamp;P1;durP1;ratioP1;P2;durP2;ratioP2
76701;SDS011;70097;44.536;0.146;2023-07-02T00:03:33;32.17;;;12.80;;
76701;SDS011;70097;44.536;0.146;2023-07-02T00:09:07;34.03;;;14.83;;
76701;SDS011;70097;44.536;0.146;2023-07-02T00:14:39;27.07;;;13.60;;
76701;SDS011;70097;44.536;0.146;2023-07-02T00:20:12;25.13;;;13.43;;
76701;SDS011;70097;44.536;0.146;2023-07-02T00:25:45;29.00;;;13.67;;
76701;SDS011;70097;44.536;0.146;2023-07-02T00:36:52;30.33;;;13.13;;
76701;SDS011;70097;44.536;0.146;2023-07-02T00:42:23;26.00;;;14.00;;
76701;SDS011;70097;44.536;0.146;2023-07-02T00:47:57;27.83;;;13.70;;
76701;SDS011;70097;44.536;0.146;2023-07-02T00:53:30;29.17;;;15.03;;
76701;SDS011;70097;44.536;0.146;2023-07-02T00:59:03;25.03;;;14.20;;
76701;SDS011;70097;44.536;0.146;2023-07-02T01:04:35;32.23;;;15.57;;
76701;SDS011;70097;44.536;0.146;2023-07-02T01:10:09;29.93;;;13.17;;
76701;SDS011;70097;44.536;0.146;2023-07-02T01:15:40;32.67;;;15.67;;
76701;SDS011;70097;44.536;0.146;2023-07-02T01:21:13;31.43;;;13.33;;
76701;SDS011;70097;44.536;0.146;2023-07-02T01:26:46;28.10;;;13.90;;
76701;SDS011;70097;44.536;0.146;2023-07-02T01:32:18;22.13;;;11.77;;
76701;SDS011;70097;44.536;0.146;2023-07-02T01:37:51;34.60;;;14.73;;
76701;SDS011;70097;44.536;0.146;2023-07-02T01:43:24;34.20;;;13.90;;
76701;SDS011;70097;44.536;0.146;2023-07-02T01:48:58;34.00;;;14.37;;
76701;SDS011;70097;44.536;0.146;2023-07-02T01:54:31;26.20;;;13.30;;
76701;SDS011;70097;44.536;0.146;2023-07-02T02:00:04;32.53;;;11.77;;
76701;SDS011;70097;44.536;0.146;2023-07-02T02:05:37;30.47;;;13.57;;
76701;SDS011;70097;44.536;0.146;2023-07-02T02:11:08;37.53;;;11.67;;
76701;SDS011;70097;44.536;0.146;2023-07-02T02:16:41;33.77;;;12.73;;
76701;SDS011;70097;44.536;0.146;2023-07-02T02:22:13;25.90;;;11.17;;
76701;SDS011;70097;44.536;0.146;2023-07-02T02:27:46;21.37;;;8.57;;
76701;SDS011;70097;44.536;0.146;2023-07-02T02:33:20;30.27;;;11.23;;
76701;SDS011;70097;44.536;0.146;2023-07-02T02:38:53;22.00;;;9.53;;
76701;SDS011;70097;44.536;0.146;2023-07-02T02:44:27;17.33;;;8.80;;
76701;SDS011;70097;44.536;0.146;2023-07-02T02:50:00;15.73;;;7.67;;
76701;SDS011;70097;44.536;0.146;2023-07-02T02:55:33;13.70;;;6.47;;
76701;SDS011;70097;44.536;0.146;2023-07-02T03:01:06;12.20;;;6.00;;
76701;SDS011;70097;44.536;0.146;2023-07-02T03:06:39;10.53;;;6.20;;
76701;SDS011;70097;44.536;0.146;2023-07-02T03:12:12;10.50;;;4.70;;
76701;SDS011;70097;44.536;0.146;2023-07-02T03:17:46;9.07;;;4.40;;
76701;SDS011;70097;44.536;0.146;2023-07-02T03:23:18;8.73;;;3.60;;
76701;SDS011;70097;44.536;0.146;2023-07-02T03:28:51;9.77;;;4.47;;
76701;SDS011;70097;44.536;0.146;2023-07-02T03:34:23;7.10;;;4.20;;
76701;SDS011;70097;44.536;0.146;2023-07-02T03:39:57;8.73;;;4.40;;
76701;SDS011;70097;44.536;0.146;2023-07-02T03:45:30;9.53;;;3.57;;
76701;SDS011;70097;44.536;0.146;2023-07-02T03:51:03;9.53;;;3.53;;
76701;SDS011;70097;44.536;0.146;2023-07-02T03:56:36;6.20;;;4.00;;
76701;SDS011;70097;44.536;0.146;2023-07-02T04:02:08;5.70;;;3.10;;
76701;SDS011;70097;44.536;0.146;2023-07-02T04:13:15;8.97;;;3.67;;
76701;SDS011;70097;44.536;0.146;2023-07-02T04:18:47;7.30;;;2.60;;
76701;SDS011;70097;44.536;0.146;2023-07-02T04:24:20;5.30;;;2.57;;
76701;SDS011;70097;44.536;0.146;2023-07-02T04:29:53;8.77;;;3.40;;
76701;SDS011;70097;44.536;0.146;2023-07-02T04:35:24;7.40;;;2.90;;
76701;SDS011;70097;44.536;0.146;2023-07-02T04:40:56;9.50;;;3.13;;
76701;SDS011;70097;44.536;0.146;2023-07-02T04:46:28;7.77;;;2.33;;
76701;SDS011;70097;44.536;0.146;2023-07-02T04:52:01;6.17;;;2.30;;
76701;SDS011;70097;44.536;0.146;2023-07-02T04:57:34;7.50;;;2.60;;
76701;SDS011;70097;44.536;0.146;2023-07-02T05:03:07;5.87;;;2.30;;
76701;SDS011;70097;44.536;0.146;2023-07-02T05:08:40;5.03;;;2.27;;
76701;SDS011;70097;44.536;0.146;2023-07-02T05:14:13;8.00;;;2.50;;
76701;SDS011;70097;44.536;0.146;2023-07-02T05:19:45;7.13;;;3.03;;
76701;SDS011;70097;44.536;0.146;2023-07-02T05:25:19;6.67;;;2.43;;
76701;SDS011;70097;44.536;0.146;2023-07-02T05:36:24;6.93;;;3.13;;
76701;SDS011;70097;44.536;0.146;2023-07-02T05:41:57;11.53;;;3.93;;
76701;SDS011;70097;44.536;0.146;2023-07-02T05:47:30;14.70;;;4.27;;
76701;SDS011;70097;44.536;0.146;2023-07-02T05:53:02;10.73;;;3.60;;
76701;SDS011;70097;44.536;0.146;2023-07-02T05:58:35;4.57;;;2.73;;
76701;SDS011;70097;44.536;0.146;2023-07-02T06:04:08;10.50;;;3.27;;
76701;SDS011;70097;44.536;0.146;2023-07-02T06:09:41;6.10;;;3.67;;
76701;SDS011;70097;44.536;0.146;2023-07-02T06:15:15;8.67;;;3.13;;
76701;SDS011;70097;44.536;0.146;2023-07-02T06:20:47;5.30;;;2.87;;
76701;SDS011;70097;44.536;0.146;2023-07-02T06:26:20;6.40;;;3.10;;
76701;SDS011;70097;44.536;0.146;2023-07-02T06:31:53;6.77;;;2.83;;
76701;SDS011;70097;44.536;0.146;2023-07-02T06:37:25;11.17;;;2.77;;
76701;SDS011;70097;44.536;0.146;2023-07-02T06:42:58;8.87;;;3.13;;
76701;SDS011;70097;44.536;0.146;2023-07-02T06:48:32;7.83;;;1.97;;
76701;SDS011;70097;44.536;0.146;2023-07-02T06:54:05;4.17;;;2.27;;
76701;SDS011;70097;44.536;0.146;2023-07-02T06:59:37;6.77;;;2.20;;
76701;SDS011;70097;44.536;0.146;2023-07-02T07:05:10;8.87;;;2.57;;
76701;SDS011;70097;44.536;0.146;2023-07-02T07:10:42;8.63;;;2.80;;
76701;SDS011;70097;44.536;0.146;2023-07-02T07:16:15;6.10;;;2.00;;
76701;SDS011;70097;44.536;0.146;2023-07-02T07:21:48;5.80;;;2.60;;
76701;SDS011;70097;44.536;0.146;2023-07-02T07:27:20;5.60;;;2.03;;
76701;SDS011;70097;44.536;0.146;2023-07-02T07:32:54;4.43;;;2.00;;
76701;SDS011;70097;44.536;0.146;2023-07-02T07:38:27;3.83;;;2.27;;
76701;SDS011;70097;44.536;0.146;2023-07-02T07:44:00;4.30;;;2.13;;
76701;SDS011;70097;44.536;0.146;2023-07-02T07:49:33;5.07;;;1.87;;
76701;SDS011;70097;44.536;0.146;2023-07-02T07:55:07;2.67;;;1.70;;
76701;SDS011;70097;44.536;0.146;2023-07-02T08:00:40;4.50;;;2.13;;
76701;SDS011;70097;44.536;0.146;2023-07-02T08:06:13;7.17;;;2.10;;
76701;SDS011;70097;44.536;0.146;2023-07-02T08:11:46;3.53;;;1.57;;
76701;SDS011;70097;44.536;0.146;2023-07-02T08:17:18;2.80;;;1.77;;
76701;SDS011;70097;44.536;0.146;2023-07-02T08:22:50;3.90;;;1.77;;
76701;SDS011;70097;44.536;0.146;2023-07-02T08:28:24;7.80;;;2.03;;
76701;SDS011;70097;44.536;0.146;2023-07-02T08:33:57;3.87;;;1.70;;
76701;SDS011;70097;44.536;0.146;2023-07-02T08:39:29;3.73;;;1.50;;
76701;SDS011;70097;44.536;0.146;2023-07-02T08:45:02;2.20;;;1.50;;
76701;SDS011;70097;44.536;0.146;2023-07-02T08:50:35;3.43;;;1.17;;
76701;SDS011;70097;44.536;0.146;2023-07-02T08:56:08;4.07;;;2.03;;
76701;SDS011;70097;44.536;0.146;2023-07-02T09:01:45;3.03;;;1.17;;
76701;SDS011;70097;44.536;0.146;2023-07-02T09:07:15;3.47;;;1.30;;
76701;SDS011;70097;44.536;0.146;2023-07-02T09:12:49;3.33;;;1.77;;
76701;SDS011;70097;44.536;0.146;2023-07-02T09:18:22;5.10;;;1.63;;
76701;SDS011;70097;44.536;0.146;2023-07-02T09:23:56;2.83;;;1.37;;
76701;SDS011;70097;44.536;0.146;2023-07-02T09:29:28;2.00;;;1.10;;
76701;SDS011;70097;44.536;0.146;2023-07-02T09:35:01;2.80;;;1.30;;
76701;SDS011;70097;44.536;0.146;2023-07-02T09:40:34;3.13;;;1.33;;
76701;SDS011;70097;44.536;0.146;2023-07-02T09:46:08;3.03;;;1.13;;
76701;SDS011;70097;44.536;0.146;2023-07-02T09:51:42;4.23;;;1.10;;
76701;SDS011;70097;44.536;0.146;2023-07-02T09:57:14;5.53;;;2.07;;
76701;SDS011;70097;44.536;0.146;2023-07-02T10:02:48;6.43;;;2.67;;
76701;SDS011;70097;44.536;0.146;2023-07-02T10:08:20;7.90;;;3.23;;
76701;SDS011;70097;44.536;0.146;2023-07-02T10:13:57;4.77;;;2.50;;
76701;SDS011;70097;44.536;0.146;2023-07-02T10:19:25;9.63;;;4.03;;
76701;SDS011;70097;44.536;0.146;2023-07-02T10:24:58;4.60;;;1.93;;
76701;SDS011;70097;44.536;0.146;2023-07-02T10:30:31;6.17;;;2.80;;
76701;SDS011;70097;44.536;0.146;2023-07-02T10:36:03;11.07;;;5.60;;
76701;SDS011;70097;44.536;0.146;2023-07-02T10:41:36;8.23;;;4.93;;
76701;SDS011;70097;44.536;0.146;2023-07-02T10:47:09;6.80;;;3.07;;
76701;SDS011;70097;44.536;0.146;2023-07-02T10:52:41;7.70;;;2.67;;
76701;SDS011;70097;44.536;0.146;2023-07-02T10:58:14;8.03;;;2.67;;
76701;SDS011;70097;44.536;0.146;2023-07-02T11:03:54;6.60;;;3.23;;
76701;SDS011;70097;44.536;0.146;2023-07-02T11:09:19;10.10;;;4.37;;
76701;SDS011;70097;44.536;0.146;2023-07-02T11:14:53;5.73;;;2.50;;
76701;SDS011;70097;44.536;0.146;2023-07-02T11:20:25;6.23;;;2.67;;
76701;SDS011;70097;44.536;0.146;2023-07-02T11:25:59;6.73;;;2.83;;
76701;SDS011;70097;44.536;0.146;2023-07-02T11:31:31;8.30;;;4.87;;
76701;SDS011;70097;44.536;0.146;2023-07-02T11:37:04;10.30;;;4.97;;
76701;SDS011;70097;44.536;0.146;2023-07-02T11:42:36;7.77;;;3.50;;
76701;SDS011;70097;44.536;0.146;2023-07-02T11:48:09;8.77;;;3.93;;
76701;SDS011;70097;44.536;0.146;2023-07-02T11:53:42;6.60;;;3.27;;
76701;SDS011;70097;44.536;0.146;2023-07-02T11:59:15;8.60;;;3.67;;
76701;SDS011;70097;44.536;0.146;2023-07-02T12:04:48;6.83;;;3.73;;
76701;SDS011;70097;44.536;0.146;2023-07-02T12:10:22;6.07;;;3.70;;
76701;SDS011;70097;44.536;0.146;2023-07-02T12:15:55;10.87;;;4.30;;
76701;SDS011;70097;44.536;0.146;2023-07-02T12:21:28;9.37;;;5.20;;
76701;SDS011;70097;44.536;0.146;2023-07-02T12:27:01;7.97;;;4.63;;
76701;SDS011;70097;44.536;0.146;2023-07-02T12:32:35;8.00;;;4.00;;
76701;SDS011;70097;44.536;0.146;2023-07-02T12:38:07;8.00;;;4.23;;
76701;SDS011;70097;44.536;0.146;2023-07-02T12:43:39;11.13;;;4.67;;
76701;SDS011;70097;44.536;0.146;2023-07-02T12:49:13;10.23;;;5.27;;
76701;SDS011;70097;44.536;0.146;2023-07-02T12:54:46;9.03;;;5.40;;
76701;SDS011;70097;44.536;0.146;2023-07-02T13:00:19;8.37;;;4.87;;
76701;SDS011;70097;44.536;0.146;2023-07-02T13:05:51;8.67;;;5.07;;
76701;SDS011;70097;44.536;0.146;2023-07-02T13:11:24;7.23;;;3.93;;
76701;SDS011;70097;44.536;0.146;2023-07-02T13:16:56;8.10;;;4.23;;
76701;SDS011;70097;44.536;0.146;2023-07-02T13:22:30;8.87;;;5.30;;
76701;SDS011;70097;44.536;0.146;2023-07-02T13:28:04;9.00;;;5.10;;
76701;SDS011;70097;44.536;0.146;2023-07-02T13:33:37;8.40;;;5.30;;
76701;SDS011;70097;44.536;0.146;2023-07-02T13:39:10;11.23;;;5.90;;
76701;SDS011;70097;44.536;0.146;2023-07-02T13:44:43;8.77;;;5.50;;
76701;SDS011;70097;44.536;0.146;2023-07-02T13:50:15;10.50;;;5.80;;
76701;SDS011;70097;44.536;0.146;2023-07-02T13:55:48;11.97;;;5.97;;
76701;SDS011;70097;44.536;0.146;2023-07-02T14:01:20;8.57;;;5.10;;
76701;SDS011;70097;44.536;0.146;2023-07-02T14:06:54;11.23;;;4.93;;
76701;SDS011;70097;44.536;0.146;2023-07-02T14:12:26;11.67;;;5.57;;
76701;SDS011;70097;44.536;0.146;2023-07-02T14:18:00;9.93;;;5.10;;
76701;SDS011;70097;44.536;0.146;2023-07-02T14:23:32;9.57;;;5.00;;
76701;SDS011;70097;44.536;0.146;2023-07-02T14:29:05;9.63;;;5.43;;
76701;SDS011;70097;44.536;0.146;2023-07-02T14:34:37;10.60;;;5.77;;
76701;SDS011;70097;44.536;0.146;2023-07-02T14:40:10;10.77;;;6.10;;
76701;SDS011;70097;44.536;0.146;2023-07-02T14:45:44;8.37;;;5.13;;
76701;SDS011;70097;44.536;0.146;2023-07-02T14:51:18;8.37;;;4.50;;
76701;SDS011;70097;44.536;0.146;2023-07-02T14:56:50;8.67;;;5.17;;
76701;SDS011;70097;44.536;0.146;2023-07-02T15:02:21;9.00;;;5.37;;
76701;SDS011;70097;44.536;0.146;2023-07-02T15:07:54;9.00;;;4.87;;
76701;SDS011;70097;44.536;0.146;2023-07-02T15:13:28;8.77;;;5.37;;
76701;SDS011;70097;44.536;0.146;2023-07-02T15:19:01;9.83;;;4.87;;
76701;SDS011;70097;44.536;0.146;2023-07-02T15:24:34;9.30;;;5.20;;
76701;SDS011;70097;44.536;0.146;2023-07-02T15:30:08;12.67;;;5.23;;
76701;SDS011;70097;44.536;0.146;2023-07-02T15:35:42;8.63;;;5.30;;
76701;SDS011;70097;44.536;0.146;2023-07-02T15:41:16;7.60;;;4.70;;
76701;SDS011;70097;44.536;0.146;2023-07-02T15:46:48;9.27;;;5.57;;
76701;SDS011;70097;44.536;0.146;2023-07-02T15:52:20;11.23;;;6.40;;
76701;SDS011;70097;44.536;0.146;2023-07-02T15:57:53;11.03;;;5.57;;
76701;SDS011;70097;44.536;0.146;2023-07-02T16:03:26;9.73;;;6.07;;
76701;SDS011;70097;44.536;0.146;2023-07-02T16:08:59;10.07;;;6.83;;
76701;SDS011;70097;44.536;0.146;2023-07-02T16:14:32;10.13;;;6.43;;
76701;SDS011;70097;44.536;0.146;2023-07-02T16:20:04;11.53;;;6.47;;
76701;SDS011;70097;44.536;0.146;2023-07-02T16:25:37;10.73;;;6.60;;
76701;SDS011;70097;44.536;0.146;2023-07-02T16:31:09;10.17;;;6.50;;
76701;SDS011;70097;44.536;0.146;2023-07-02T16:36:43;16.13;;;11.90;;
76701;SDS011;70097;44.536;0.146;2023-07-02T16:42:15;14.67;;;9.60;;
76701;SDS011;70097;44.536;0.146;2023-07-02T16:47:47;13.83;;;7.30;;
76701;SDS011;70097;44.536;0.146;2023-07-02T16:53:21;10.90;;;7.00;;
76701;SDS011;70097;44.536;0.146;2023-07-02T16:58:53;12.13;;;6.47;;
76701;SDS011;70097;44.536;0.146;2023-07-02T17:04:26;14.67;;;6.83;;
76701;SDS011;70097;44.536;0.146;2023-07-02T17:09:59;9.57;;;6.13;;
76701;SDS011;70097;44.536;0.146;2023-07-02T17:15:31;14.30;;;6.90;;
76701;SDS011;70097;44.536;0.146;2023-07-02T17:21:05;13.77;;;6.87;;
76701;SDS011;70097;44.536;0.146;2023-07-02T17:26:37;9.47;;;5.77;;
76701;SDS011;70097;44.536;0.146;2023-07-02T17:32:09;12.53;;;7.17;;
76701;SDS011;70097;44.536;0.146;2023-07-02T17:37:42;16.20;;;7.90;;
76701;SDS011;70097;44.536;0.146;2023-07-02T17:43:13;15.17;;;8.33;;
76701;SDS011;70097;44.536;0.146;2023-07-02T17:48:47;14.43;;;8.30;;
76701;SDS011;70097;44.536;0.146;2023-07-02T17:54:20;14.63;;;8.47;;
76701;SDS011;70097;44.536;0.146;2023-07-02T17:59:52;15.17;;;8.50;;
76701;SDS011;70097;44.536;0.146;2023-07-02T18:05:25;14.37;;;9.23;;
76701;SDS011;70097;44.536;0.146;2023-07-02T18:10:59;19.50;;;9.10;;
76701;SDS011;70097;44.536;0.146;2023-07-02T18:16:32;19.37;;;10.20;;
76701;SDS011;70097;44.536;0.146;2023-07-02T18:22:05;17.03;;;8.17;;
76701;SDS011;70097;44.536;0.146;2023-07-02T18:27:36;14.67;;;9.97;;
76701;SDS011;70097;44.536;0.146;2023-07-02T18:33:10;14.97;;;8.53;;
76701;SDS011;70097;44.536;0.146;2023-07-02T18:38:43;16.00;;;9.50;;
76701;SDS011;70097;44.536;0.146;2023-07-02T18:44:17;15.23;;;8.73;;
76701;SDS011;70097;44.536;0.146;2023-07-02T18:49:48;18.53;;;9.57;;
76701;SDS011;70097;44.536;0.146;2023-07-02T18:55:22;21.23;;;9.63;;
76701;SDS011;70097;44.536;0.146;2023-07-02T19:00:55;17.87;;;9.73;;
76701;SDS011;70097;44.536;0.146;2023-07-02T19:06:29;16.57;;;9.07;;
76701;SDS011;70097;44.536;0.146;2023-07-02T19:12:01;18.40;;;9.93;;
76701;SDS011;70097;44.536;0.146;2023-07-02T19:17:33;16.37;;;9.10;;
76701;SDS011;70097;44.536;0.146;2023-07-02T19:23:06;15.37;;;9.03;;
76701;SDS011;70097;44.536;0.146;2023-07-02T19:28:38;14.33;;;8.73;;
76701;SDS011;70097;44.536;0.146;2023-07-02T19:34:11;14.87;;;9.03;;
76701;SDS011;70097;44.536;0.146;2023-07-02T19:39:43;22.93;;;10.17;;
76701;SDS011;70097;44.536;0.146;2023-07-02T19:45:16;17.07;;;8.73;;
76701;SDS011;70097;44.536;0.146;2023-07-02T19:50:56;17.83;;;8.33;;
76701;SDS011;70097;44.536;0.146;2023-07-02T19:56:22;13.53;;;7.97;;
76701;SDS011;70097;44.536;0.146;2023-07-02T20:01:54;17.90;;;7.70;;
76701;SDS011;70097;44.536;0.146;2023-07-02T20:07:28;17.10;;;8.50;;
76701;SDS011;70097;44.536;0.146;2023-07-02T20:13:00;11.67;;;7.23;;
76701;SDS011;70097;44.536;0.146;2023-07-02T20:18:32;16.90;;;8.87;;
76701;SDS011;70097;44.536;0.146;2023-07-02T20:24:05;15.77;;;7.13;;
76701;SDS011;70097;44.536;0.146;2023-07-02T20:29:38;16.17;;;8.13;;
76701;SDS011;70097;44.536;0.146;2023-07-02T20:35:11;15.37;;;8.30;;
76701;SDS011;70097;44.536;0.146;2023-07-02T20:40:44;15.97;;;7.50;;
76701;SDS011;70097;44.536;0.146;2023-07-02T20:46:17;15.40;;;8.67;;
76701;SDS011;70097;44.536;0.146;2023-07-02T20:51:49;16.80;;;8.23;;
76701;SDS011;70097;44.536;0.146;2023-07-02T20:57:21;19.87;;;7.80;;
76701;SDS011;70097;44.536;0.146;2023-07-02T21:02:53;17.13;;;7.40;;
76701;SDS011;70097;44.536;0.146;2023-07-02T21:08:26;23.03;;;9.20;;
76701;SDS011;70097;44.536;0.146;2023-07-02T21:14:00;14.17;;;7.63;;
76701;SDS011;70097;44.536;0.146;2023-07-02T21:19:32;13.37;;;6.80;;
76701;SDS011;70097;44.536;0.146;2023-07-02T21:25:04;16.23;;;8.00;;
76701;SDS011;70097;44.536;0.146;2023-07-02T21:30:37;14.90;;;7.50;;
76701;SDS011;70097;44.536;0.146;2023-07-02T21:36:10;15.73;;;7.57;;
76701;SDS011;70097;44.536;0.146;2023-07-02T21:41:43;15.87;;;7.30;;
76701;SDS011;70097;44.536;0.146;2023-07-02T21:47:16;18.23;;;8.30;;
76701;SDS011;70097;44.536;0.146;2023-07-02T21:52:49;18.03;;;7.87;;
76701;SDS011;70097;44.536;0.146;2023-07-02T21:58:21;17.47;;;6.53;;
76701;SDS011;70097;44.536;0.146;2023-07-02T22:03:55;16.20;;;8.27;;
76701;SDS011;70097;44.536;0.146;2023-07-02T22:09:28;12.97;;;7.07;;
76701;SDS011;70097;44.536;0.146;2023-07-02T22:14:59;22.17;;;8.73;;
76701;SDS011;70097;44.536;0.146;2023-07-02T22:20:32;19.10;;;7.83;;
76701;SDS011;70097;44.536;0.146;2023-07-02T22:26:03;17.77;;;8.07;;
76701;SDS011;70097;44.536;0.146;2023-07-02T22:31:37;23.03;;;9.27;;
76701;SDS011;70097;44.536;0.146;2023-07-02T22:37:10;17.70;;;8.83;;
76701;SDS011;70097;44.536;0.146;2023-07-02T22:42:44;16.83;;;8.63;;
76701;SDS011;70097;44.536;0.146;2023-07-02T22:48:17;16.33;;;8.03;;
76701;SDS011;70097;44.536;0.146;2023-07-02T22:59:22;17.47;;;8.27;;
76701;SDS011;70097;44.536;0.146;2023-07-02T23:04:54;17.33;;;8.83;;
76701;SDS011;70097;44.536;0.146;2023-07-02T23:10:28;17.53;;;8.53;;
76701;SDS011;70097;44.536;0.146;2023-07-02T23:16:01;19.43;;;8.57;;
76701;SDS011;70097;44.536;0.146;2023-07-02T23:21:33;20.50;;;9.03;;
76701;SDS011;70097;44.536;0.146;2023-07-02T23:27:07;21.53;;;8.93;;
76701;SDS011;70097;44.536;0.146;2023-07-02T23:32:39;21.73;;;10.90;;
76701;SDS011;70097;44.536;0.146;2023-07-02T23:38:11;19.50;;;9.00;;
76701;SDS011;70097;44.536;0.146;2023-07-02T23:43:43;23.50;;;9.73;;
76701;SDS011;70097;44.536;0.146;2023-07-02T23:49:17;19.03;;;10.30;;
76701;SDS011;70097;44.536;0.146;2023-07-02T23:54:50;23.93;;;9.73;;
